sensor_id;sensor_type;location;lat;lon;timestamp;temperature;humidity
20158;DHT22;10239;56.820;24.416;2022-07-22T00:00:40;18.50;99.90
20158;DHT22;10239;56.820;24.416;2022-07-22T00:03:07;18.40;99.90
20158;DHT22;10239;56.820;24.416;2022-07-22T00:05:36;18.20;99.90
20158;DHT22;10239;56.820;24.416;2022-07-22T00:08:04;18.20;99.90
20158;DHT22;10239;56.820;24.416;2022-07-22T00:10:31;18.20;99.90
20158;DHT22;10239;56.820;24.416;2022-07-22T00:12:59;18.10;99.90
20158;DHT22;10239;56.820;24.416;2022-07-22T00:15:27;17.90;99.90
20158;DHT22;10239;56.820;24.416;2022-07-22T00:17:55;18.00;99.90
20158;DHT22;10239;56.820;24.416;2022-07-22T00:20:23;18.10;99.90
20158;DHT22;10239;56.820;24.416;2022-07-22T00:22:51;18.10;99.90
20158;DHT22;10239;56.820;24.416;2022-07-22T00:25:19;18.20;99.90
20158;DHT22;10239;56.820;24.416;2022-07-22T00:27:46;18.20;99.90
20158;DHT22;10239;56.820;24.416;2022-07-22T00:30:14;18.20;99.90
20158;DHT22;10239;56.820;24.416;2022-07-22T00:32:43;18.30;99.90
20158;DHT22;10239;56.820;24.416;2022-07-22T00:35:10;18.20;99.90
20158;DHT22;10239;56.820;24.416;2022-07-22T00:37:38;18.20;99.90
20158;DHT22;10239;56.820;24.416;2022-07-22T00:40:06;18.20;99.90
20158;DHT22;10239;56.820;24.416;2022-07-22T00:42:34;18.10;99.90
20158;DHT22;10239;56.820;24.416;2022-07-22T00:45:02;18.00;99.90
20158;DHT22;10239;56.820;24.416;2022-07-22T00:47:31;18.00;99.90
20158;DHT22;10239;56.820;24.416;2022-07-22T00:49:59;17.90;99.90
20158;DHT22;10239;56.820;24.416;2022-07-22T00:52:27;17.90;99.90
20158;DHT22;10239;56.820;24.416;2022-07-22T00:54:55;18.00;99.90
20158;DHT22;10239;56.820;24.416;2022-07-22T00:57:23;18.00;99.90
20158;DHT22;10239;56.820;24.416;2022-07-22T00:59:51;17.90;99.90
20158;DHT22;10239;56.820;24.416;2022-07-22T01:02:19;17.90;99.90
20158;DHT22;10239;56.820;24.416;2022-07-22T01:04:46;17.80;99.90
20158;DHT22;10239;56.820;24.416;2022-07-22T01:07:14;17.80;99.90
20158;DHT22;10239;56.820;24.416;2022-07-22T01:09:44;17.80;99.90
20158;DHT22;10239;56.820;24.416;2022-07-22T01:12:13;17.80;99.90
20158;DHT22;10239;56.820;24.416;2022-07-22T01:14:41;17.80;99.90
20158;DHT22;10239;56.820;24.416;2022-07-22T01:17:09;17.80;99.90
20158;DHT22;10239;56.820;24.416;2022-07-22T01:19:39;17.80;99.90
20158;DHT22;10239;56.820;24.416;2022-07-22T01:22:07;17.70;99.90
20158;DHT22;10239;56.820;24.416;2022-07-22T01:24:35;17.80;99.90
20158;DHT22;10239;56.820;24.416;2022-07-22T01:27:03;17.80;99.90
20158;DHT22;10239;56.820;24.416;2022-07-22T01:29:31;17.70;99.90
20158;DHT22;10239;56.820;24.416;2022-07-22T01:32:00;17.70;99.90
20158;DHT22;10239;56.820;24.416;2022-07-22T01:34:28;17.60;99.90
20158;DHT22;10239;56.820;24.416;2022-07-22T01:36:56;17.60;99.90
20158;DHT22;10239;56.820;24.416;2022-07-22T01:39:24;17.60;99.90
20158;DHT22;10239;56.820;24.416;2022-07-22T01:41:52;17.70;99.90
20158;DHT22;10239;56.820;24.416;2022-07-22T01:44:19;17.60;99.90
20158;DHT22;10239;56.820;24.416;2022-07-22T01:46:47;17.70;99.90
20158;DHT22;10239;56.820;24.416;2022-07-22T01:49:17;17.70;99.90
20158;DHT22;10239;56.820;24.416;2022-07-22T01:51:44;17.60;99.90
20158;DHT22;10239;56.820;24.416;2022-07-22T01:54:12;17.60;99.90
20158;DHT22;10239;56.820;24.416;2022-07-22T01:56:40;17.70;99.90
20158;DHT22;10239;56.820;24.416;2022-07-22T01:59:07;17.60;99.90
20158;DHT22;10239;56.820;24.416;2022-07-22T02:01:35;17.50;99.90
20158;DHT22;10239;56.820;24.416;2022-07-22T02:04:03;17.40;99.90
20158;DHT22;10239;56.820;24.416;2022-07-22T02:06:31;17.40;99.90
20158;DHT22;10239;56.820;24.416;2022-07-22T02:08:59;17.50;99.90
20158;DHT22;10239;56.820;24.416;2022-07-22T02:11:34;17.50;99.90
20158;DHT22;10239;56.820;24.416;2022-07-22T02:14:02;17.40;99.90
20158;DHT22;10239;56.820;24.416;2022-07-22T02:16:30;17.50;99.90
20158;DHT22;10239;56.820;24.416;2022-07-22T02:18:58;17.50;99.90
20158;DHT22;10239;56.820;24.416;2022-07-22T02:21:26;17.50;99.90
20158;DHT22;10239;56.820;24.416;2022-07-22T02:23:58;17.50;99.90
20158;DHT22;10239;56.820;24.416;2022-07-22T02:26:26;17.60;99.90
20158;DHT22;10239;56.820;24.416;2022-07-22T02:28:54;17.60;99.90
20158;DHT22;10239;56.820;24.416;2022-07-22T02:31:22;17.60;99.90
20158;DHT22;10239;56.820;24.416;2022-07-22T02:33:50;17.70;99.90
20158;DHT22;10239;56.820;24.416;2022-07-22T02:36:18;17.60;99.90
20158;DHT22;10239;56.820;24.416;2022-07-22T02:38:47;17.60;99.90
20158;DHT22;10239;56.820;24.416;2022-07-22T02:41:15;17.60;99.90
20158;DHT22;10239;56.820;24.416;2022-07-22T02:43:49;17.60;99.90
20158;DHT22;10239;56.820;24.416;2022-07-22T02:46:24;17.60;99.90
20158;DHT22;10239;56.820;24.416;2022-07-22T02:48:53;17.60;99.90
20158;DHT22;10239;56.820;24.416;2022-07-22T02:51:21;17.70;99.90
20158;DHT22;10239;56.820;24.416;2022-07-22T02:53:50;17.70;99.90
20158;DHT22;10239;56.820;24.416;2022-07-22T02:56:18;17.80;99.90
20158;DHT22;10239;56.820;24.416;2022-07-22T02:58:47;17.80;99.90
20158;DHT22;10239;56.820;24.416;2022-07-22T03:01:14;17.90;99.90
20158;DHT22;10239;56.820;24.416;2022-07-22T03:03:49;18.00;99.90
20158;DHT22;10239;56.820;24.416;2022-07-22T03:06:18;18.20;99.90
20158;DHT22;10239;56.820;24.416;2022-07-22T03:08:54;18.10;99.90
20158;DHT22;10239;56.820;24.416;2022-07-22T03:11:21;18.20;99.90
20158;DHT22;10239;56.820;24.416;2022-07-22T03:13:49;18.30;99.90
20158;DHT22;10239;56.820;24.416;2022-07-22T03:16:18;18.40;99.90
20158;DHT22;10239;56.820;24.416;2022-07-22T03:18:46;18.40;99.90
20158;DHT22;10239;56.820;24.416;2022-07-22T03:21:14;18.40;99.90
20158;DHT22;10239;56.820;24.416;2022-07-22T03:23:43;18.50;99.90
20158;DHT22;10239;56.820;24.416;2022-07-22T03:26:13;18.50;99.90
20158;DHT22;10239;56.820;24.416;2022-07-22T03:28:40;18.60;99.90
20158;DHT22;10239;56.820;24.416;2022-07-22T03:31:09;18.70;99.90
20158;DHT22;10239;56.820;24.416;2022-07-22T03:33:36;18.80;99.90
20158;DHT22;10239;56.820;24.416;2022-07-22T03:36:06;18.80;99.90
20158;DHT22;10239;56.820;24.416;2022-07-22T03:38:36;18.90;99.90
20158;DHT22;10239;56.820;24.416;2022-07-22T03:41:04;19.10;99.90
20158;DHT22;10239;56.820;24.416;2022-07-22T03:43:32;19.20;99.90
20158;DHT22;10239;56.820;24.416;2022-07-22T03:46:01;19.30;99.90
20158;DHT22;10239;56.820;24.416;2022-07-22T03:48:29;19.50;99.90
20158;DHT22;10239;56.820;24.416;2022-07-22T03:50:57;19.60;99.90
20158;DHT22;10239;56.820;24.416;2022-07-22T03:53:27;19.80;99.90
20158;DHT22;10239;56.820;24.416;2022-07-22T03:55:55;19.70;99.90
20158;DHT22;10239;56.820;24.416;2022-07-22T03:58:23;19.70;99.90
20158;DHT22;10239;56.820;24.416;2022-07-22T04:00:52;19.90;99.90
20158;DHT22;10239;56.820;24.416;2022-07-22T04:03:20;20.10;99.90
20158;DHT22;10239;56.820;24.416;2022-07-22T04:06:20;20.20;99.90
20158;DHT22;10239;56.820;24.416;2022-07-22T04:08:54;20.40;99.90
20158;DHT22;10239;56.820;24.416;2022-07-22T04:11:23;20.50;99.90
20158;DHT22;10239;56.820;24.416;2022-07-22T04:13:50;20.60;99.90
20158;DHT22;10239;56.820;24.416;2022-07-22T04:16:18;20.70;99.90
20158;DHT22;10239;56.820;24.416;2022-07-22T04:18:57;20.90;99.90
20158;DHT22;10239;56.820;24.416;2022-07-22T04:21:49;21.10;99.90
20158;DHT22;10239;56.820;24.416;2022-07-22T04:24:19;21.40;99.90
20158;DHT22;10239;56.820;24.416;2022-07-22T04:26:47;21.60;99.90
20158;DHT22;10239;56.820;24.416;2022-07-22T04:29:15;21.70;99.90
20158;DHT22;10239;56.820;24.416;2022-07-22T04:31:43;21.60;99.90
20158;DHT22;10239;56.820;24.416;2022-07-22T04:34:14;21.70;99.90
20158;DHT22;10239;56.820;24.416;2022-07-22T04:36:42;21.70;99.90
20158;DHT22;10239;56.820;24.416;2022-07-22T04:39:10;21.90;99.90
20158;DHT22;10239;56.820;24.416;2022-07-22T04:41:43;22.30;99.90
20158;DHT22;10239;56.820;24.416;2022-07-22T04:44:15;22.60;99.90
20158;DHT22;10239;56.820;24.416;2022-07-22T04:46:43;22.80;99.90
20158;DHT22;10239;56.820;24.416;2022-07-22T04:49:11;23.00;99.90
20158;DHT22;10239;56.820;24.416;2022-07-22T04:51:39;23.20;99.90
20158;DHT22;10239;56.820;24.416;2022-07-22T04:54:10;23.30;99.90
20158;DHT22;10239;56.820;24.416;2022-07-22T04:56:41;23.40;99.90
20158;DHT22;10239;56.820;24.416;2022-07-22T04:59:11;23.40;99.90
20158;DHT22;10239;56.820;24.416;2022-07-22T05:01:40;24.30;99.90
20158;DHT22;10239;56.820;24.416;2022-07-22T05:04:08;25.40;99.90
20158;DHT22;10239;56.820;24.416;2022-07-22T05:06:39;26.40;99.90
20158;DHT22;10239;56.820;24.416;2022-07-22T05:09:07;26.90;99.90
20158;DHT22;10239;56.820;24.416;2022-07-22T05:11:36;27.40;99.90
20158;DHT22;10239;56.820;24.416;2022-07-22T05:14:04;27.80;99.90
20158;DHT22;10239;56.820;24.416;2022-07-22T05:16:35;28.20;99.90
20158;DHT22;10239;56.820;24.416;2022-07-22T05:19:06;28.50;99.90
20158;DHT22;10239;56.820;24.416;2022-07-22T05:21:34;29.00;99.90
20158;DHT22;10239;56.820;24.416;2022-07-22T05:24:02;29.50;99.90
20158;DHT22;10239;56.820;24.416;2022-07-22T05:26:31;30.30;99.90
20158;DHT22;10239;56.820;24.416;2022-07-22T05:29:00;31.00;99.90
20158;DHT22;10239;56.820;24.416;2022-07-22T05:31:29;32.00;99.90
20158;DHT22;10239;56.820;24.416;2022-07-22T05:33:58;33.10;99.90
20158;DHT22;10239;56.820;24.416;2022-07-22T05:36:32;33.90;99.90
20158;DHT22;10239;56.820;24.416;2022-07-22T05:39:00;33.80;99.90
20158;DHT22;10239;56.820;24.416;2022-07-22T05:41:30;34.20;99.90
20158;DHT22;10239;56.820;24.416;2022-07-22T05:44:00;34.00;99.90
20158;DHT22;10239;56.820;24.416;2022-07-22T05:46:28;33.80;99.90
20158;DHT22;10239;56.820;24.416;2022-07-22T05:49:01;33.10;99.90
20158;DHT22;10239;56.820;24.416;2022-07-22T05:51:40;32.50;99.90
20158;DHT22;10239;56.820;24.416;2022-07-22T05:54:09;34.20;99.90
20158;DHT22;10239;56.820;24.416;2022-07-22T05:56:37;34.40;99.90
20158;DHT22;10239;56.820;24.416;2022-07-22T05:59:07;34.20;99.90
20158;DHT22;10239;56.820;24.416;2022-07-22T06:01:44;34.10;99.90
20158;DHT22;10239;56.820;24.416;2022-07-22T06:04:38;34.30;99.90
20158;DHT22;10239;56.820;24.416;2022-07-22T06:07:07;33.80;99.90
20158;DHT22;10239;56.820;24.416;2022-07-22T06:09:36;34.50;99.90
20158;DHT22;10239;56.820;24.416;2022-07-22T06:12:05;34.50;99.90
20158;DHT22;10239;56.820;24.416;2022-07-22T06:14:38;34.70;99.90
20158;DHT22;10239;56.820;24.416;2022-07-22T06:17:09;35.90;99.90
20158;DHT22;10239;56.820;24.416;2022-07-22T06:19:37;35.60;99.90
20158;DHT22;10239;56.820;24.416;2022-07-22T06:22:05;35.20;99.90
20158;DHT22;10239;56.820;24.416;2022-07-22T06:24:34;35.50;99.90
20158;DHT22;10239;56.820;24.416;2022-07-22T06:27:02;35.30;99.90
20158;DHT22;10239;56.820;24.416;2022-07-22T06:29:31;35.20;99.90
20158;DHT22;10239;56.820;24.416;2022-07-22T06:31:59;34.30;99.90
20158;DHT22;10239;56.820;24.416;2022-07-22T06:34:28;35.70;99.90
20158;DHT22;10239;56.820;24.416;2022-07-22T06:37:04;35.30;99.90
20158;DHT22;10239;56.820;24.416;2022-07-22T06:39:34;36.60;99.90
20158;DHT22;10239;56.820;24.416;2022-07-22T06:42:08;36.20;99.40
20158;DHT22;10239;56.820;24.416;2022-07-22T06:44:53;36.50;98.70
20158;DHT22;10239;56.820;24.416;2022-07-22T06:47:47;36.30;99.00
20158;DHT22;10239;56.820;24.416;2022-07-22T06:50:17;35.70;99.80
20158;DHT22;10239;56.820;24.416;2022-07-22T06:52:45;36.30;98.60
20158;DHT22;10239;56.820;24.416;2022-07-22T06:55:14;36.60;98.50
20158;DHT22;10239;56.820;24.416;2022-07-22T06:57:49;36.60;97.00
20158;DHT22;10239;56.820;24.416;2022-07-22T07:00:17;36.50;98.00
20158;DHT22;10239;56.820;24.416;2022-07-22T07:03:06;37.60;97.20
20158;DHT22;10239;56.820;24.416;2022-07-22T07:05:58;37.50;97.00
20158;DHT22;10239;56.820;24.416;2022-07-22T07:08:31;37.10;97.10
20158;DHT22;10239;56.820;24.416;2022-07-22T07:10:59;37.70;96.40
20158;DHT22;10239;56.820;24.416;2022-07-22T07:13:28;38.00;97.40
20158;DHT22;10239;56.820;24.416;2022-07-22T07:15:56;38.60;96.00
20158;DHT22;10239;56.820;24.416;2022-07-22T07:18:24;38.40;94.70
20158;DHT22;10239;56.820;24.416;2022-07-22T07:20:53;38.70;94.60
20158;DHT22;10239;56.820;24.416;2022-07-22T07:23:21;38.10;94.60
20158;DHT22;10239;56.820;24.416;2022-07-22T07:25:50;38.20;93.90
20158;DHT22;10239;56.820;24.416;2022-07-22T07:28:20;39.10;94.20
20158;DHT22;10239;56.820;24.416;2022-07-22T07:30:54;39.50;93.50
20158;DHT22;10239;56.820;24.416;2022-07-22T07:33:23;39.70;93.60
20158;DHT22;10239;56.820;24.416;2022-07-22T07:35:52;38.30;92.80
20158;DHT22;10239;56.820;24.416;2022-07-22T07:38:29;39.50;93.90
20158;DHT22;10239;56.820;24.416;2022-07-22T07:40:57;40.20;94.10
20158;DHT22;10239;56.820;24.416;2022-07-22T07:43:25;40.70;94.90
20158;DHT22;10239;56.820;24.416;2022-07-22T07:45:54;39.90;90.80
20158;DHT22;10239;56.820;24.416;2022-07-22T07:48:22;40.60;91.90
20158;DHT22;10239;56.820;24.416;2022-07-22T07:50:49;41.50;93.20
20158;DHT22;10239;56.820;24.416;2022-07-22T07:53:17;42.10;93.20
20158;DHT22;10239;56.820;24.416;2022-07-22T07:55:46;42.50;89.40
20158;DHT22;10239;56.820;24.416;2022-07-22T07:58:15;41.70;87.20
20158;DHT22;10239;56.820;24.416;2022-07-22T08:00:43;41.40;86.40
20158;DHT22;10239;56.820;24.416;2022-07-22T08:03:11;41.10;90.50
20158;DHT22;10239;56.820;24.416;2022-07-22T08:05:40;41.70;92.50
20158;DHT22;10239;56.820;24.416;2022-07-22T08:08:15;42.30;91.00
20158;DHT22;10239;56.820;24.416;2022-07-22T08:10:44;42.60;87.00
20158;DHT22;10239;56.820;24.416;2022-07-22T08:13:43;42.20;82.20
20158;DHT22;10239;56.820;24.416;2022-07-22T08:16:44;41.70;86.60
20158;DHT22;10239;56.820;24.416;2022-07-22T08:19:12;41.50;87.90
20158;DHT22;10239;56.820;24.416;2022-07-22T08:21:42;41.70;83.20
20158;DHT22;10239;56.820;24.416;2022-07-22T08:24:23;41.10;90.00
20158;DHT22;10239;56.820;24.416;2022-07-22T08:26:51;41.90;89.40
20158;DHT22;10239;56.820;24.416;2022-07-22T08:29:19;41.20;81.80
20158;DHT22;10239;56.820;24.416;2022-07-22T08:31:47;41.40;83.50
20158;DHT22;10239;56.820;24.416;2022-07-22T08:34:17;42.00;83.20
20158;DHT22;10239;56.820;24.416;2022-07-22T08:36:45;41.30;82.10
20158;DHT22;10239;56.820;24.416;2022-07-22T08:39:13;40.60;84.70
20158;DHT22;10239;56.820;24.416;2022-07-22T08:41:49;41.10;86.00
20158;DHT22;10239;56.820;24.416;2022-07-22T08:44:18;39.80;82.70
20158;DHT22;10239;56.820;24.416;2022-07-22T08:46:46;39.70;84.90
20158;DHT22;10239;56.820;24.416;2022-07-22T08:49:20;40.30;90.00
20158;DHT22;10239;56.820;24.416;2022-07-22T08:52:06;41.00;90.10
20158;DHT22;10239;56.820;24.416;2022-07-22T08:54:41;41.60;88.60
20158;DHT22;10239;56.820;24.416;2022-07-22T08:57:11;41.90;83.00
20158;DHT22;10239;56.820;24.416;2022-07-22T08:59:57;41.70;83.40
20158;DHT22;10239;56.820;24.416;2022-07-22T09:02:26;41.20;82.30
20158;DHT22;10239;56.820;24.416;2022-07-22T09:05:05;41.00;85.40
20158;DHT22;10239;56.820;24.416;2022-07-22T09:07:58;40.40;85.10
20158;DHT22;10239;56.820;24.416;2022-07-22T09:10:41;39.70;86.20
20158;DHT22;10239;56.820;24.416;2022-07-22T09:13:27;40.50;89.00
20158;DHT22;10239;56.820;24.416;2022-07-22T09:16:09;41.50;88.90
20158;DHT22;10239;56.820;24.416;2022-07-22T09:18:55;41.20;83.60
20158;DHT22;10239;56.820;24.416;2022-07-22T09:21:49;39.60;82.70
20158;DHT22;10239;56.820;24.416;2022-07-22T09:24:42;40.20;83.00
20158;DHT22;10239;56.820;24.416;2022-07-22T09:27:27;41.00;87.20
20158;DHT22;10239;56.820;24.416;2022-07-22T09:30:23;41.20;84.60
20158;DHT22;10239;56.820;24.416;2022-07-22T09:33:09;41.90;87.90
20158;DHT22;10239;56.820;24.416;2022-07-22T09:35:40;42.10;88.40
20158;DHT22;10239;56.820;24.416;2022-07-22T09:38:16;41.00;81.70
20158;DHT22;10239;56.820;24.416;2022-07-22T09:40:46;41.40;81.90
20158;DHT22;10239;56.820;24.416;2022-07-22T09:43:16;41.80;87.80
20158;DHT22;10239;56.820;24.416;2022-07-22T09:45:47;42.30;82.00
20158;DHT22;10239;56.820;24.416;2022-07-22T09:48:18;41.20;81.90
20158;DHT22;10239;56.820;24.416;2022-07-22T09:51:06;41.40;82.30
20158;DHT22;10239;56.820;24.416;2022-07-22T09:54:09;41.50;84.60
20158;DHT22;10239;56.820;24.416;2022-07-22T09:56:38;40.00;83.90
20158;DHT22;10239;56.820;24.416;2022-07-22T09:59:07;40.50;85.20
20158;DHT22;10239;56.820;24.416;2022-07-22T10:01:39;41.00;88.80
20158;DHT22;10239;56.820;24.416;2022-07-22T10:04:07;41.50;87.00
20158;DHT22;10239;56.820;24.416;2022-07-22T10:06:39;42.00;86.50
20158;DHT22;10239;56.820;24.416;2022-07-22T10:09:14;42.10;80.50
20158;DHT22;10239;56.820;24.416;2022-07-22T10:11:43;41.80;79.10
20158;DHT22;10239;56.820;24.416;2022-07-22T10:14:18;41.50;80.80
20158;DHT22;10239;56.820;24.416;2022-07-22T10:16:52;41.70;81.80
20158;DHT22;10239;56.820;24.416;2022-07-22T10:19:21;41.50;81.40
20158;DHT22;10239;56.820;24.416;2022-07-22T10:21:50;41.20;81.80
20158;DHT22;10239;56.820;24.416;2022-07-22T10:24:20;41.20;84.90
20158;DHT22;10239;56.820;24.416;2022-07-22T10:26:58;41.60;88.70
20158;DHT22;10239;56.820;24.416;2022-07-22T10:29:40;41.20;81.20
20158;DHT22;10239;56.820;24.416;2022-07-22T10:40:11;41.00;81.50
20158;DHT22;10239;56.820;24.416;2022-07-22T10:45:32;40.60;80.90
20158;DHT22;10239;56.820;24.416;2022-07-22T10:48:03;40.50;83.30
20158;DHT22;10239;56.820;24.416;2022-07-22T10:53:10;40.40;79.30
20158;DHT22;10239;56.820;24.416;2022-07-22T11:01:02;40.40;83.50
20158;DHT22;10239;56.820;24.416;2022-07-22T11:03:31;40.80;85.50
20158;DHT22;10239;56.820;24.416;2022-07-22T11:06:19;41.10;84.70
20158;DHT22;10239;56.820;24.416;2022-07-22T11:09:08;41.10;80.40
20158;DHT22;10239;56.820;24.416;2022-07-22T11:11:38;41.20;85.90
20158;DHT22;10239;56.820;24.416;2022-07-22T11:14:28;40.90;79.40
20158;DHT22;10239;56.820;24.416;2022-07-22T11:17:06;40.60;84.70
20158;DHT22;10239;56.820;24.416;2022-07-22T11:19:35;40.40;85.00
20158;DHT22;10239;56.820;24.416;2022-07-22T11:22:08;40.40;86.40
20158;DHT22;10239;56.820;24.416;2022-07-22T11:24:37;39.20;81.30
20158;DHT22;10239;56.820;24.416;2022-07-22T11:27:12;38.30;83.00
20158;DHT22;10239;56.820;24.416;2022-07-22T11:29:41;38.70;81.40
20158;DHT22;10239;56.820;24.416;2022-07-22T11:32:13;38.90;81.90
20158;DHT22;10239;56.820;24.416;2022-07-22T11:34:43;38.80;81.90
20158;DHT22;10239;56.820;24.416;2022-07-22T11:37:22;38.50;79.30
20158;DHT22;10239;56.820;24.416;2022-07-22T11:39:51;37.90;80.50
20158;DHT22;10239;56.820;24.416;2022-07-22T11:42:19;37.00;88.00
20158;DHT22;10239;56.820;24.416;2022-07-22T11:44:47;36.60;86.30
20158;DHT22;10239;56.820;24.416;2022-07-22T11:47:18;36.60;84.50
20158;DHT22;10239;56.820;24.416;2022-07-22T11:49:47;36.00;85.60
20158;DHT22;10239;56.820;24.416;2022-07-22T11:52:15;36.20;84.30
20158;DHT22;10239;56.820;24.416;2022-07-22T11:54:44;36.60;83.90
20158;DHT22;10239;56.820;24.416;2022-07-22T11:57:14;36.20;89.60
20158;DHT22;10239;56.820;24.416;2022-07-22T11:59:42;35.60;88.20
20158;DHT22;10239;56.820;24.416;2022-07-22T12:02:10;35.30;86.80
20158;DHT22;10239;56.820;24.416;2022-07-22T12:04:42;35.30;90.70
20158;DHT22;10239;56.820;24.416;2022-07-22T12:07:12;35.60;85.90
20158;DHT22;10239;56.820;24.416;2022-07-22T12:09:41;34.80;89.40
20158;DHT22;10239;56.820;24.416;2022-07-22T12:12:09;35.10;86.80
20158;DHT22;10239;56.820;24.416;2022-07-22T12:14:45;35.60;86.70
20158;DHT22;10239;56.820;24.416;2022-07-22T12:17:15;35.60;86.40
20158;DHT22;10239;56.820;24.416;2022-07-22T12:19:43;35.60;87.10
20158;DHT22;10239;56.820;24.416;2022-07-22T12:22:18;35.80;89.50
20158;DHT22;10239;56.820;24.416;2022-07-22T12:24:58;35.70;86.00
20158;DHT22;10239;56.820;24.416;2022-07-22T12:27:26;35.70;86.10
20158;DHT22;10239;56.820;24.416;2022-07-22T12:29:54;35.90;91.40
20158;DHT22;10239;56.820;24.416;2022-07-22T12:37:26;36.20;86.60
20158;DHT22;10239;56.820;24.416;2022-07-22T12:40:19;35.50;87.60
20158;DHT22;10239;56.820;24.416;2022-07-22T12:43:06;35.20;87.00
20158;DHT22;10239;56.820;24.416;2022-07-22T12:45:36;35.40;88.30
20158;DHT22;10239;56.820;24.416;2022-07-22T12:50:34;35.80;90.00
20158;DHT22;10239;56.820;24.416;2022-07-22T12:53:11;36.00;88.30
20158;DHT22;10239;56.820;24.416;2022-07-22T12:55:50;36.10;85.30
20158;DHT22;10239;56.820;24.416;2022-07-22T12:58:28;36.00;86.90
20158;DHT22;10239;56.820;24.416;2022-07-22T13:00:59;35.20;88.70
20158;DHT22;10239;56.820;24.416;2022-07-22T13:03:28;34.60;90.10
20158;DHT22;10239;56.820;24.416;2022-07-22T13:06:00;34.90;90.10
20158;DHT22;10239;56.820;24.416;2022-07-22T13:08:29;35.20;88.60
20158;DHT22;10239;56.820;24.416;2022-07-22T13:11:13;35.30;89.00
20158;DHT22;10239;56.820;24.416;2022-07-22T13:13:41;35.30;88.90
20158;DHT22;10239;56.820;24.416;2022-07-22T13:16:10;35.10;87.90
20158;DHT22;10239;56.820;24.416;2022-07-22T13:18:39;34.00;90.30
20158;DHT22;10239;56.820;24.416;2022-07-22T13:21:09;34.30;91.50
20158;DHT22;10239;56.820;24.416;2022-07-22T13:23:36;34.50;90.40
20158;DHT22;10239;56.820;24.416;2022-07-22T13:26:05;34.50;89.40
20158;DHT22;10239;56.820;24.416;2022-07-22T13:28:32;34.50;92.10
20158;DHT22;10239;56.820;24.416;2022-07-22T13:31:00;34.40;87.90
20158;DHT22;10239;56.820;24.416;2022-07-22T13:33:28;34.50;86.50
20158;DHT22;10239;56.820;24.416;2022-07-22T13:35:56;34.30;86.80
20158;DHT22;10239;56.820;24.416;2022-07-22T13:38:24;34.20;89.50
20158;DHT22;10239;56.820;24.416;2022-07-22T13:40:52;34.40;88.80
20158;DHT22;10239;56.820;24.416;2022-07-22T13:43:21;34.50;90.60
20158;DHT22;10239;56.820;24.416;2022-07-22T13:45:51;34.60;91.90
20158;DHT22;10239;56.820;24.416;2022-07-22T13:48:20;34.60;91.40
20158;DHT22;10239;56.820;24.416;2022-07-22T13:50:48;34.90;91.60
20158;DHT22;10239;56.820;24.416;2022-07-22T13:53:16;34.90;89.10
20158;DHT22;10239;56.820;24.416;2022-07-22T13:55:44;35.00;91.10
20158;DHT22;10239;56.820;24.416;2022-07-22T13:58:12;35.00;91.70
20158;DHT22;10239;56.820;24.416;2022-07-22T14:00:40;35.10;91.50
20158;DHT22;10239;56.820;24.416;2022-07-22T14:03:09;35.20;86.10
20158;DHT22;10239;56.820;24.416;2022-07-22T14:05:37;35.30;88.80
20158;DHT22;10239;56.820;24.416;2022-07-22T14:08:04;35.10;85.20
20158;DHT22;10239;56.820;24.416;2022-07-22T14:10:32;34.90;85.90
20158;DHT22;10239;56.820;24.416;2022-07-22T14:13:00;34.90;87.30
20158;DHT22;10239;56.820;24.416;2022-07-22T14:15:28;34.90;90.10
20158;DHT22;10239;56.820;24.416;2022-07-22T14:17:56;34.80;89.30
20158;DHT22;10239;56.820;24.416;2022-07-22T14:20:23;34.50;90.30
20158;DHT22;10239;56.820;24.416;2022-07-22T14:22:51;34.70;88.90
20158;DHT22;10239;56.820;24.416;2022-07-22T14:25:19;34.30;91.00
20158;DHT22;10239;56.820;24.416;2022-07-22T14:27:48;34.30;90.00
20158;DHT22;10239;56.820;24.416;2022-07-22T14:30:36;34.30;90.30
20158;DHT22;10239;56.820;24.416;2022-07-22T14:33:04;34.30;91.10
20158;DHT22;10239;56.820;24.416;2022-07-22T14:35:32;34.30;90.10
20158;DHT22;10239;56.820;24.416;2022-07-22T14:38:02;34.10;90.10
20158;DHT22;10239;56.820;24.416;2022-07-22T14:40:29;33.90;89.40
20158;DHT22;10239;56.820;24.416;2022-07-22T14:42:57;33.80;90.40
20158;DHT22;10239;56.820;24.416;2022-07-22T14:45:45;33.60;91.80
20158;DHT22;10239;56.820;24.416;2022-07-22T14:48:13;33.60;90.80
20158;DHT22;10239;56.820;24.416;2022-07-22T14:50:41;33.50;91.80
20158;DHT22;10239;56.820;24.416;2022-07-22T14:53:09;33.60;91.40
20158;DHT22;10239;56.820;24.416;2022-07-22T14:55:37;33.70;92.20
20158;DHT22;10239;56.820;24.416;2022-07-22T14:58:05;33.70;92.70
20158;DHT22;10239;56.820;24.416;2022-07-22T15:00:33;33.70;92.00
20158;DHT22;10239;56.820;24.416;2022-07-22T15:03:01;33.80;92.60
20158;DHT22;10239;56.820;24.416;2022-07-22T15:05:29;33.70;92.40
20158;DHT22;10239;56.820;24.416;2022-07-22T15:07:57;33.70;93.10
20158;DHT22;10239;56.820;24.416;2022-07-22T15:10:25;33.50;93.00
20158;DHT22;10239;56.820;24.416;2022-07-22T15:12:53;33.30;92.60
20158;DHT22;10239;56.820;24.416;2022-07-22T15:15:21;33.20;93.40
20158;DHT22;10239;56.820;24.416;2022-07-22T15:17:48;33.10;93.60
20158;DHT22;10239;56.820;24.416;2022-07-22T15:20:17;33.20;93.60
20158;DHT22;10239;56.820;24.416;2022-07-22T15:22:45;33.10;93.40
20158;DHT22;10239;56.820;24.416;2022-07-22T15:25:12;33.10;93.70
20158;DHT22;10239;56.820;24.416;2022-07-22T15:27:40;33.20;93.00
20158;DHT22;10239;56.820;24.416;2022-07-22T15:30:10;33.10;94.20
20158;DHT22;10239;56.820;24.416;2022-07-22T15:32:38;33.10;92.90
20158;DHT22;10239;56.820;24.416;2022-07-22T15:35:07;33.00;92.40
20158;DHT22;10239;56.820;24.416;2022-07-22T15:37:35;32.80;94.00
20158;DHT22;10239;56.820;24.416;2022-07-22T15:40:09;32.40;93.10
20158;DHT22;10239;56.820;24.416;2022-07-22T15:42:39;32.60;94.60
20158;DHT22;10239;56.820;24.416;2022-07-22T15:45:08;32.80;93.90
20158;DHT22;10239;56.820;24.416;2022-07-22T15:47:36;32.80;93.20
20158;DHT22;10239;56.820;24.416;2022-07-22T15:50:05;32.50;94.70
20158;DHT22;10239;56.820;24.416;2022-07-22T15:52:33;32.40;94.70
20158;DHT22;10239;56.820;24.416;2022-07-22T15:55:01;32.30;94.90
20158;DHT22;10239;56.820;24.416;2022-07-22T15:57:29;32.30;93.90
20158;DHT22;10239;56.820;24.416;2022-07-22T16:00:16;32.10;93.90
20158;DHT22;10239;56.820;24.416;2022-07-22T16:02:43;31.90;94.70
20158;DHT22;10239;56.820;24.416;2022-07-22T16:05:11;31.80;94.40